Time;durP1;ratioP1;P1;durP2;ratioP2;P2;SDS_P1;SDS_P2;PMS_P1;PMS_P2;Temp;Humidity;BMP_temperature;BMP_pressure;BME280_temperature;BME280_humidity;BME280_pressure;Samples;Min_cycle;Max_cycle;Signal;HPM_P1;HPM_P2
2023/08/23 00:00:45;;;;;;;4.10;3.75;;;;;;;;;;5095070;28;20324;-63
2023/08/23 00:03:13;;;;;;;6.93;4.45;;;;;;;;;;5097997;28;20205;-64
2023/08/23 00:05:43;;;;;;;4.88;3.42;;;;;;;;;;5098212;28;20235;-65
2023/08/23 00:08:10;;;;;;;4.90;3.53;;;;;;;;;;5097662;28;20209;-65
2023/08/23 00:10:38;;;;;;;3.88;3.58;;;;;;;;;;5097920;28;20312;-65
2023/08/23 00:13:06;;;;;;;4.07;3.70;;;;;;;;;;5097978;28;20201;-63
2023/08/23 00:15:34;;;;;;;5.35;3.90;;;;;;;;;;5097296;28;20209;-64
2023/08/23 00:18:02;;;;;;;4.55;3.45;;;;;;;;;;5097928;28;20312;-63
2023/08/23 00:20:29;;;;;;;3.97;3.47;;;;;;;;;;5097679;28;20312;-63
2023/08/23 00:22:59;;;;;;;7.47;3.42;;;;;;;;;;5097264;28;20288;-64
2023/08/23 00:25:26;;;;;;;4.45;3.38;;;;;;;;;;5097981;28;20220;-64
2023/08/23 00:27:54;;;;;;;6.50;3.38;;;;;;;;;;5097745;28;20773;-64
2023/08/23 00:30:40;;;;;;;6.15;3.53;;;;;;;;;;5095939;28;20221;-63
2023/08/23 00:33:08;;;;;;;6.65;3.42;;;;;;;;;;5097215;28;20201;-64
2023/08/23 00:35:37;;;;;;;3.95;3.55;;;;;;;;;;5096945;28;20198;-64
2023/08/23 00:38:06;;;;;;;3.63;3.33;;;;;;;;;;5096501;28;20221;-64
2023/08/23 00:40:34;;;;;;;6.75;3.47;;;;;;;;;;5091910;28;20224;-64
2023/08/23 00:43:02;;;;;;;4.50;3.58;;;;;;;;;;5097910;28;20212;-63
2023/08/23 00:45:31;;;;;;;3.78;3.47;;;;;;;;;;5096672;28;20205;-63
2023/08/23 00:47:59;;;;;;;4.85;3.50;;;;;;;;;;5096499;28;20209;-63
2023/08/23 00:50:27;;;;;;;3.50;3.20;;;;;;;;;;5095995;28;20561;-64
2023/08/23 00:52:54;;;;;;;3.80;3.50;;;;;;;;;;5095797;28;20205;-64
2023/08/23 00:55:24;;;;;;;5.22;3.42;;;;;;;;;;5096965;28;20205;-63
2023/08/23 00:57:52;;;;;;;7.05;3.28;;;;;;;;;;5096038;28;20216;-64
2023/08/23 01:00:20;;;;;;;9.60;3.83;;;;;;;;;;5090163;28;20641;-63
2023/08/23 01:02:48;;;;;;;6.68;3.88;;;;;;;;;;5096135;28;20235;-63
2023/08/23 01:05:16;;;;;;;3.83;3.47;;;;;;;;;;5096671;28;20201;-64
2023/08/23 01:07:50;;;;;;;3.88;3.47;;;;;;;;;;5096239;28;20197;-69
2023/08/23 01:10:21;;;;;;;5.53;4.20;;;;;;;;;;5100382;28;20227;-63
2023/08/23 01:12:51;;;;;;;6.38;3.80;;;;;;;;;;5100381;28;20205;-65
2023/08/23 01:15:20;;;;;;;8.25;3.67;;;;;;;;;;5099250;28;20227;-64
2023/08/23 01:17:49;;;;;;;4.75;3.45;;;;;;;;;;5100177;28;20210;-64
2023/08/23 01:20:17;;;;;;;4.15;3.17;;;;;;;;;;5098913;28;20228;-64
2023/08/23 01:22:46;;;;;;;4.05;3.60;;;;;;;;;;5098457;28;20577;-64
2023/08/23 01:25:15;;;;;;;4.00;3.70;;;;;;;;;;5100889;28;20209;-64
2023/08/23 01:27:43;;;;;;;5.88;3.22;;;;;;;;;;5100012;28;20665;-63
2023/08/23 01:30:24;;;;;;;3.85;3.40;;;;;;;;;;5100423;28;20679;-63
2023/08/23 01:32:54;;;;;;;3.45;3.15;;;;;;;;;;5098039;28;20648;-63
2023/08/23 01:35:25;;;;;;;4.68;3.30;;;;;;;;;;5100681;28;20210;-63
2023/08/23 01:37:53;;;;;;;5.43;3.30;;;;;;;;;;5099529;28;20201;-64
2023/08/23 01:40:23;;;;;;;4.60;3.53;;;;;;;;;;5099261;28;20225;-62
2023/08/23 01:42:51;;;;;;;5.85;2.70;;;;;;;;;;5099760;28;20276;-64
2023/08/23 01:45:19;;;;;;;3.72;3.13;;;;;;;;;;5099896;28;20197;-63
2023/08/23 01:47:47;;;;;;;4.25;2.95;;;;;;;;;;5099036;28;20677;-65
2023/08/23 01:50:15;;;;;;;4.10;3.20;;;;;;;;;;5098647;28;20699;-65
2023/08/23 01:52:42;;;;;;;5.38;3.60;;;;;;;;;;5098092;28;20194;-65
2023/08/23 01:55:10;;;;;;;3.92;3.13;;;;;;;;;;5100280;28;20687;-64
2023/08/23 01:57:41;;;;;;;3.47;3.17;;;;;;;;;;5095189;28;20206;-64
2023/08/23 02:00:10;;;;;;;3.33;2.80;;;;;;;;;;5098752;28;20225;-64
2023/08/23 02:02:37;;;;;;;3.58;2.53;;;;;;;;;;5100158;28;20209;-64
2023/08/23 02:05:06;;;;;;;4.55;2.75;;;;;;;;;;5099892;28;20229;-64
2023/08/23 02:07:33;;;;;;;3.90;2.50;;;;;;;;;;5099499;28;20240;-62
2023/08/23 02:10:01;;;;;;;4.20;2.58;;;;;;;;;;5099905;28;20252;-64
2023/08/23 02:12:29;;;;;;;4.45;3.70;;;;;;;;;;5100066;28;20205;-64
2023/08/23 02:14:58;;;;;;;5.72;2.80;;;;;;;;;;5099241;28;20229;-63
2023/08/23 02:17:26;;;;;;;6.30;2.47;;;;;;;;;;5100045;28;20243;-63
2023/08/23 02:19:53;;;;;;;5.15;3.00;;;;;;;;;;5099457;28;20229;-64
2023/08/23 02:22:23;;;;;;;3.15;2.65;;;;;;;;;;5099237;28;20566;-64
2023/08/23 02:24:51;;;;;;;2.72;2.38;;;;;;;;;;5099967;28;20677;-63
2023/08/23 02:27:19;;;;;;;4.20;2.67;;;;;;;;;;5099813;28;20574;-64
2023/08/23 02:29:47;;;;;;;6.88;3.15;;;;;;;;;;5099600;28;20296;-64
2023/08/23 02:32:16;;;;;;;2.92;2.17;;;;;;;;;;5097895;28;20691;-64
2023/08/23 02:34:43;;;;;;;3.30;2.60;;;;;;;;;;5098741;28;20197;-65
2023/08/23 02:37:11;;;;;;;2.53;2.33;;;;;;;;;;5098358;28;20205;-64
2023/08/23 02:39:39;;;;;;;6.25;2.50;;;;;;;;;;5098670;28;20221;-64
2023/08/23 02:42:07;;;;;;;2.28;1.92;;;;;;;;;;5098374;28;20571;-65
2023/08/23 02:44:35;;;;;;;2.58;2.38;;;;;;;;;;5099397;28;20262;-64
2023/08/23 02:47:02;;;;;;;3.35;2.30;;;;;;;;;;5096758;28;20292;-64
2023/08/23 02:49:32;;;;;;;3.13;2.33;;;;;;;;;;5098836;28;20201;-65
2023/08/23 02:51:59;;;;;;;3.58;2.47;;;;;;;;;;5096614;28;20200;-64
2023/08/23 02:54:27;;;;;;;3.88;2.25;;;;;;;;;;5097472;28;20287;-64
2023/08/23 02:56:55;;;;;;;3.15;2.22;;;;;;;;;;5099096;28;20201;-65
2023/08/23 02:59:23;;;;;;;5.32;2.17;;;;;;;;;;5092558;28;20226;-65
2023/08/23 03:01:51;;;;;;;3.50;3.10;;;;;;;;;;5097179;28;20335;-65
2023/08/23 03:04:18;;;;;;;5.35;2.10;;;;;;;;;;5097064;28;20209;-65
2023/08/23 03:06:47;;;;;;;4.50;2.70;;;;;;;;;;5096308;28;20199;-64
2023/08/23 03:09:15;;;;;;;4.50;2.40;;;;;;;;;;5099009;28;20208;-65
2023/08/23 03:11:43;;;;;;;4.88;2.55;;;;;;;;;;5098690;28;20221;-64
2023/08/23 03:14:10;;;;;;;3.22;2.70;;;;;;;;;;5098628;28;20215;-63
2023/08/23 03:16:38;;;;;;;4.28;2.40;;;;;;;;;;5098901;28;20243;-65
2023/08/23 03:19:06;;;;;;;2.70;2.22;;;;;;;;;;5098581;28;20205;-65
2023/08/23 03:21:34;;;;;;;4.30;2.13;;;;;;;;;;5098233;28;20235;-65
2023/08/23 03:24:04;;;;;;;3.42;2.22;;;;;;;;;;5095997;28;20209;-65
2023/08/23 03:26:31;;;;;;;2.78;2.25;;;;;;;;;;5097959;28;20205;-64
2023/08/23 03:28:59;;;;;;;5.30;2.50;;;;;;;;;;5097510;28;20211;-65
2023/08/23 03:31:27;;;;;;;2.20;1.80;;;;;;;;;;5097795;28;20249;-65
2023/08/23 03:33:56;;;;;;;3.80;2.38;;;;;;;;;;5097651;28;20200;-65
2023/08/23 03:36:23;;;;;;;3.90;2.28;;;;;;;;;;5097458;28;20208;-64
2023/08/23 03:38:51;;;;;;;3.30;2.20;;;;;;;;;;5097601;28;20215;-64
2023/08/23 03:41:20;;;;;;;2.88;2.15;;;;;;;;;;5091640;28;20264;-65
2023/08/23 03:43:48;;;;;;;2.95;2.38;;;;;;;;;;5097217;28;20204;-65
2023/08/23 03:46:16;;;;;;;3.50;2.25;;;;;;;;;;5096913;28;20292;-65
2023/08/23 03:48:43;;;;;;;3.05;2.05;;;;;;;;;;5096752;28;20205;-65
2023/08/23 03:51:11;;;;;;;2.45;1.88;;;;;;;;;;5097817;28;20227;-65
2023/08/23 03:53:39;;;;;;;2.83;2.22;;;;;;;;;;5095936;28;20211;-65
2023/08/23 03:56:08;;;;;;;3.78;2.22;;;;;;;;;;5095662;28;20219;-65
2023/08/23 03:58:37;;;;;;;2.72;1.85;;;;;;;;;;5098144;28;20230;-65
2023/08/23 04:01:05;;;;;;;2.33;2.05;;;;;;;;;;5090523;28;20795;-65
2023/08/23 04:03:34;;;;;;;2.75;2.50;;;;;;;;;;5098158;28;20205;-63
2023/08/23 04:06:02;;;;;;;3.17;2.35;;;;;;;;;;5097972;28;20603;-64
2023/08/23 04:08:29;;;;;;;3.03;1.95;;;;;;;;;;5097395;28;20208;-65
2023/08/23 04:10:57;;;;;;;2.97;2.03;;;;;;;;;;5097742;28;20303;-65
2023/08/23 04:13:25;;;;;;;4.25;2.38;;;;;;;;;;5094168;28;20653;-65
2023/08/23 04:15:54;;;;;;;4.45;2.30;;;;;;;;;;5092194;28;20213;-64
2023/08/23 04:18:22;;;;;;;2.20;1.98;;;;;;;;;;5097762;28;20211;-65
2023/08/23 04:20:58;;;;;;;6.45;2.35;;;;;;;;;;5096873;28;20229;-65
2023/08/23 04:23:26;;;;;;;2.17;2.00;;;;;;;;;;5095682;28;20210;-64
2023/08/23 04:25:54;;;;;;;2.40;2.20;;;;;;;;;;5093017;28;20198;-63
2023/08/23 04:28:21;;;;;;;2.17;2.00;;;;;;;;;;5096370;28;20231;-64
2023/08/23 04:30:49;;;;;;;2.22;2.00;;;;;;;;;;5091762;28;22002;-64
2023/08/23 04:33:18;;;;;;;2.83;2.03;;;;;;;;;;5095730;28;20620;-63
2023/08/23 04:35:46;;;;;;;6.68;2.42;;;;;;;;;;5091557;28;20211;-64
2023/08/23 04:38:14;;;;;;;3.10;2.30;;;;;;;;;;5095658;28;20202;-63
2023/08/23 04:40:42;;;;;;;2.55;2.10;;;;;;;;;;5092831;28;20325;-63
2023/08/23 04:43:10;;;;;;;2.17;2.00;;;;;;;;;;5097586;28;20215;-63
2023/08/23 04:45:38;;;;;;;3.58;2.28;;;;;;;;;;5100399;28;20195;-64
2023/08/23 04:48:07;;;;;;;2.92;2.00;;;;;;;;;;5098113;28;20199;-63
2023/08/23 04:50:36;;;;;;;2.90;2.28;;;;;;;;;;5098713;28;20219;-64
2023/08/23 04:53:04;;;;;;;5.82;2.28;;;;;;;;;;5098893;28;20658;-64
2023/08/23 04:55:32;;;;;;;3.78;2.28;;;;;;;;;;5098009;28;20200;-65
2023/08/23 04:57:59;;;;;;;3.17;2.22;;;;;;;;;;5098837;28;20208;-63
2023/08/23 05:00:27;;;;;;;2.88;2.10;;;;;;;;;;5096955;28;20230;-64
2023/08/23 05:02:55;;;;;;;4.25;2.67;;;;;;;;;;5100402;28;20199;-64
2023/08/23 05:05:23;;;;;;;6.80;2.90;;;;;;;;;;5098278;28;20337;-64
2023/08/23 05:07:52;;;;;;;3.35;2.50;;;;;;;;;;5096278;28;20201;-64
2023/08/23 05:10:20;;;;;;;2.95;2.55;;;;;;;;;;5096880;28;20227;-63
2023/08/23 05:12:48;;;;;;;5.35;3.03;;;;;;;;;;5098738;28;20205;-63
2023/08/23 05:15:16;;;;;;;4.13;2.30;;;;;;;;;;5098951;28;20209;-63
2023/08/23 05:17:44;;;;;;;4.45;2.40;;;;;;;;;;5097920;28;20782;-64
2023/08/23 05:20:14;;;;;;;2.30;2.10;;;;;;;;;;5093752;28;20579;-64
2023/08/23 05:22:42;;;;;;;4.40;2.60;;;;;;;;;;5099014;28;20194;-64
2023/08/23 05:25:11;;;;;;;4.20;2.47;;;;;;;;;;5098548;28;20206;-64
2023/08/23 05:27:39;;;;;;;4.87;2.50;;;;;;;;;;5097585;28;20198;-64
2023/08/23 05:30:08;;;;;;;2.93;2.17;;;;;;;;;;5103009;28;20267;-63
2023/08/23 05:32:36;;;;;;;4.63;2.25;;;;;;;;;;5097229;28;20197;-63
2023/08/23 05:35:04;;;;;;;3.83;2.30;;;;;;;;;;5098808;28;20208;-63
2023/08/23 05:37:32;;;;;;;2.38;2.20;;;;;;;;;;5099614;28;20203;-63
2023/08/23 05:39:59;;;;;;;3.95;2.90;;;;;;;;;;5100202;28;20230;-64
2023/08/23 05:42:30;;;;;;;3.28;1.98;;;;;;;;;;5098124;28;20219;-64
2023/08/23 05:44:58;;;;;;;2.50;2.30;;;;;;;;;;5099532;28;20253;-64
2023/08/23 05:47:26;;;;;;;2.42;2.22;;;;;;;;;;5098970;28;20561;-65
2023/08/23 05:49:54;;;;;;;3.10;2.08;;;;;;;;;;5098464;28;20274;-64
2023/08/23 05:52:22;;;;;;;3.00;2.08;;;;;;;;;;5099280;28;20281;-65
2023/08/23 05:54:49;;;;;;;3.25;1.92;;;;;;;;;;5098694;28;20208;-65
2023/08/23 05:57:17;;;;;;;2.30;2.08;;;;;;;;;;5099247;28;20631;-65
2023/08/23 05:59:47;;;;;;;5.45;2.45;;;;;;;;;;5100082;28;20300;-65
2023/08/23 06:02:14;;;;;;;3.15;2.28;;;;;;;;;;5100028;28;20640;-62
2023/08/23 06:04:42;;;;;;;2.70;2.17;;;;;;;;;;5110208;28;20230;-64
2023/08/23 06:07:10;;;;;;;2.25;2.03;;;;;;;;;;5098289;28;20214;-64
2023/08/23 06:09:38;;;;;;;4.65;2.38;;;;;;;;;;5099144;28;20709;-64
2023/08/23 06:12:06;;;;;;;3.13;2.22;;;;;;;;;;5098971;28;20208;-64
2023/08/23 06:14:34;;;;;;;2.90;2.40;;;;;;;;;;5087847;28;20212;-65
2023/08/23 06:17:03;;;;;;;2.75;2.55;;;;;;;;;;5102173;28;20273;-64
2023/08/23 06:19:31;;;;;;;3.70;2.50;;;;;;;;;;5099611;28;20561;-64
2023/08/23 06:21:58;;;;;;;8.00;2.75;;;;;;;;;;5099460;28;20323;-63
2023/08/23 06:24:26;;;;;;;4.20;2.60;;;;;;;;;;5099867;28;20227;-63
2023/08/23 06:26:54;;;;;;;6.30;2.30;;;;;;;;;;5099656;28;20295;-63
2023/08/23 06:29:22;;;;;;;2.95;2.08;;;;;;;;;;5099651;28;20204;-63
2023/08/23 06:31:49;;;;;;;3.47;2.33;;;;;;;;;;5097725;28;20220;-63
2023/08/23 06:34:21;;;;;;;3.00;2.45;;;;;;;;;;5098696;28;20202;-63
2023/08/23 06:36:49;;;;;;;3.50;2.78;;;;;;;;;;5098392;28;20209;-62
2023/08/23 06:39:17;;;;;;;5.97;2.60;;;;;;;;;;5099202;28;20218;-62
2023/08/23 06:42:00;;;;;;;3.45;2.55;;;;;;;;;;5093051;28;20219;-62
2023/08/23 06:44:28;;;;;;;2.50;2.30;;;;;;;;;;5098130;28;20240;-62
2023/08/23 06:46:56;;;;;;;3.28;2.50;;;;;;;;;;5096225;28;20643;-62
2023/08/23 06:49:25;;;;;;;3.33;2.35;;;;;;;;;;5098714;28;20535;-62
2023/08/23 06:51:52;;;;;;;6.90;2.47;;;;;;;;;;5094958;28;20612;-63
2023/08/23 06:54:20;;;;;;;3.10;2.50;;;;;;;;;;5098194;28;20224;-62
2023/08/23 06:56:48;;;;;;;4.07;2.50;;;;;;;;;;5097919;28;20219;-62
2023/08/23 06:59:16;;;;;;;4.30;2.65;;;;;;;;;;5083329;28;20210;-62
2023/08/23 07:01:43;;;;;;;5.90;2.35;;;;;;;;;;5094801;28;20240;-62
2023/08/23 07:04:11;;;;;;;2.92;2.40;;;;;;;;;;5097372;28;20207;-62
2023/08/23 07:06:43;;;;;;;3.40;2.57;;;;;;;;;;5096519;28;20211;-64
2023/08/23 07:09:11;;;;;;;4.35;2.50;;;;;;;;;;5097299;28;20194;-63
2023/08/23 07:11:39;;;;;;;4.78;2.72;;;;;;;;;;5098426;28;20220;-63
2023/08/23 07:14:08;;;;;;;4.68;2.55;;;;;;;;;;5089733;28;20197;-63
2023/08/23 07:16:36;;;;;;;3.58;2.50;;;;;;;;;;5096824;28;20768;-63
2023/08/23 07:19:04;;;;;;;3.38;2.10;;;;;;;;;;5097619;28;20199;-63
2023/08/23 07:21:32;;;;;;;7.45;2.55;;;;;;;;;;5097069;28;20223;-63
2023/08/23 07:24:02;;;;;;;8.80;2.70;;;;;;;;;;5097878;28;20292;-63
2023/08/23 07:26:30;;;;;;;5.20;2.97;;;;;;;;;;5097580;28;20206;-63
2023/08/23 07:28:58;;;;;;;2.83;2.47;;;;;;;;;;5097590;28;20566;-63
2023/08/23 07:31:25;;;;;;;10.70;2.92;;;;;;;;;;5095717;28;20217;-64
2023/08/23 07:33:53;;;;;;;5.35;2.78;;;;;;;;;;5096473;28;20202;-65
2023/08/23 07:36:21;;;;;;;4.88;2.60;;;;;;;;;;5098188;28;20209;-65
2023/08/23 07:38:48;;;;;;;7.10;2.55;;;;;;;;;;5096620;28;20201;-65
2023/08/23 07:41:18;;;;;;;5.63;2.97;;;;;;;;;;5096992;28;20225;-65
2023/08/23 07:43:45;;;;;;;6.63;3.38;;;;;;;;;;5096367;28;20225;-66
2023/08/23 07:46:13;;;;;;;5.25;2.53;;;;;;;;;;5096844;28;20211;-65
2023/08/23 07:48:41;;;;;;;2.70;2.33;;;;;;;;;;5093534;28;20209;-63
2023/08/23 07:51:09;;;;;;;3.22;2.40;;;;;;;;;;5097786;28;20224;-64
2023/08/23 07:53:37;;;;;;;7.40;2.92;;;;;;;;;;5095894;28;20664;-64
2023/08/23 07:56:05;;;;;;;5.97;3.58;;;;;;;;;;5096520;28;20660;-64
2023/08/23 07:58:36;;;;;;;4.43;2.50;;;;;;;;;;5097848;28;20201;-64
2023/08/23 08:01:04;;;;;;;2.47;2.28;;;;;;;;;;5089115;28;20237;-64
2023/08/23 08:03:32;;;;;;;4.80;2.67;;;;;;;;;;5097951;28;20236;-65
2023/08/23 08:06:00;;;;;;;3.40;2.40;;;;;;;;;;5098045;28;20205;-65
2023/08/23 08:08:30;;;;;;;4.78;2.85;;;;;;;;;;5097793;28;20216;-64
2023/08/23 08:10:59;;;;;;;3.28;2.70;;;;;;;;;;5094247;28;20254;-64
2023/08/23 08:13:27;;;;;;;4.90;2.75;;;;;;;;;;5097306;28;20225;-63
2023/08/23 08:15:56;;;;;;;3.15;2.70;;;;;;;;;;5097333;28;20280;-63
2023/08/23 08:18:24;;;;;;;6.82;3.25;;;;;;;;;;5094423;28;20201;-65
2023/08/23 08:20:51;;;;;;;5.32;2.78;;;;;;;;;;5098895;28;20221;-65
2023/08/23 08:23:19;;;;;;;4.65;2.63;;;;;;;;;;5095687;28;20217;-64
2023/08/23 08:25:47;;;;;;;3.63;2.88;;;;;;;;;;5098557;28;20243;-64
2023/08/23 08:28:15;;;;;;;6.65;2.63;;;;;;;;;;5097790;28;20263;-64
2023/08/23 08:30:43;;;;;;;4.40;2.75;;;;;;;;;;5097743;28;20256;-64
2023/08/23 08:33:12;;;;;;;6.38;3.25;;;;;;;;;;5098322;28;20201;-64
2023/08/23 08:35:40;;;;;;;4.07;2.78;;;;;;;;;;5097010;28;20565;-63
2023/08/23 08:38:08;;;;;;;9.20;3.28;;;;;;;;;;5099362;28;20273;-62
2023/08/23 08:40:36;;;;;;;2.88;2.58;;;;;;;;;;5096194;28;20232;-61
2023/08/23 08:43:05;;;;;;;4.75;2.55;;;;;;;;;;5101016;28;20252;-62
2023/08/23 08:45:35;;;;;;;4.90;2.92;;;;;;;;;;5100199;28;20614;-62
2023/08/23 08:48:03;;;;;;;4.03;2.55;;;;;;;;;;5101019;28;20205;-61
2023/08/23 08:50:32;;;;;;;6.68;2.92;;;;;;;;;;5101258;28;20565;-62
2023/08/23 08:53:01;;;;;;;6.28;2.60;;;;;;;;;;5098946;28;20200;-62
2023/08/23 08:55:29;;;;;;;5.05;2.90;;;;;;;;;;5100485;28;20228;-61
2023/08/23 08:57:57;;;;;;;8.63;2.90;;;;;;;;;;5100691;28;20247;-61
2023/08/23 09:00:26;;;;;;;7.57;2.83;;;;;;;;;;5093738;28;20669;-61
2023/08/23 09:02:58;;;;;;;4.82;2.65;;;;;;;;;;5099896;28;20656;-62
2023/08/23 09:05:26;;;;;;;4.55;2.88;;;;;;;;;;5087723;28;20198;-61
2023/08/23 09:07:56;;;;;;;3.13;2.53;;;;;;;;;;5098371;28;20202;-63
2023/08/23 09:10:24;;;;;;;3.28;2.88;;;;;;;;;;5099548;28;20285;-62
2023/08/23 09:12:53;;;;;;;4.65;2.92;;;;;;;;;;5098503;28;20220;-61
2023/08/23 09:15:23;;;;;;;6.32;2.80;;;;;;;;;;5100564;28;20201;-61
2023/08/23 09:17:52;;;;;;;4.88;2.55;;;;;;;;;;5097065;28;20214;-61
2023/08/23 09:20:21;;;;;;;4.97;3.40;;;;;;;;;;5099423;28;20224;-60
2023/08/23 09:22:50;;;;;;;4.60;2.88;;;;;;;;;;5094234;28;20225;-61
2023/08/23 09:25:20;;;;;;;3.47;2.90;;;;;;;;;;5096892;28;20378;-61
2023/08/23 09:27:48;;;;;;;3.45;2.95;;;;;;;;;;5097144;28;20212;-62
2023/08/23 09:30:16;;;;;;;3.20;2.65;;;;;;;;;;5099627;28;20771;-61
2023/08/23 09:32:43;;;;;;;3.67;2.85;;;;;;;;;;5099525;28;20205;-61
2023/08/23 09:35:12;;;;;;;4.15;2.65;;;;;;;;;;5099121;28;20588;-61
2023/08/23 09:37:40;;;;;;;4.00;2.72;;;;;;;;;;5099224;28;20284;-62
2023/08/23 09:40:15;;;;;;;3.33;3.05;;;;;;;;;;5098462;28;20227;-61
2023/08/23 09:42:45;;;;;;;4.05;3.50;;;;;;;;;;5099744;28;20207;-61
2023/08/23 09:45:14;;;;;;;5.47;2.90;;;;;;;;;;5099389;28;20235;-61
2023/08/23 09:47:45;;;;;;;4.28;3.10;;;;;;;;;;5099253;28;20193;-61
2023/08/23 09:50:14;;;;;;;6.15;3.13;;;;;;;;;;5098538;28;20225;-62
2023/08/23 09:52:44;;;;;;;3.70;3.40;;;;;;;;;;5098527;28;20202;-62
2023/08/23 09:55:12;;;;;;;3.78;3.08;;;;;;;;;;5096047;28;20296;-62
2023/08/23 09:57:42;;;;;;;4.28;3.00;;;;;;;;;;5099606;28;20280;-62
2023/08/23 10:00:12;;;;;;;3.65;2.92;;;;;;;;;;5100020;28;20237;-61
2023/08/23 10:02:41;;;;;;;4.85;3.00;;;;;;;;;;5100664;28;20202;-61
2023/08/23 10:05:11;;;;;;;5.28;2.85;;;;;;;;;;5100078;28;20236;-61
2023/08/23 10:07:40;;;;;;;5.18;2.72;;;;;;;;;;5099742;28;20645;-62
2023/08/23 10:10:09;;;;;;;3.20;3.00;;;;;;;;;;5096409;28;20257;-61
2023/08/23 10:12:38;;;;;;;6.18;3.08;;;;;;;;;;5099902;28;20205;-62
2023/08/23 10:15:08;;;;;;;3.90;2.95;;;;;;;;;;5102200;28;20573;-61
2023/08/23 10:17:37;;;;;;;4.57;2.80;;;;;;;;;;5106674;28;20644;-62
2023/08/23 10:20:06;;;;;;;5.07;2.67;;;;;;;;;;5099991;28;20232;-62
2023/08/23 10:22:34;;;;;;;3.17;2.80;;;;;;;;;;5099372;28;20205;-62
2023/08/23 10:25:04;;;;;;;3.92;3.05;;;;;;;;;;5099492;28;20312;-62
2023/08/23 10:27:35;;;;;;;5.53;2.97;;;;;;;;;;5098838;28;20227;-62
2023/08/23 10:30:07;;;;;;;4.18;3.38;;;;;;;;;;5098264;28;20582;-62
2023/08/23 10:32:48;;;;;;;4.40;3.45;;;;;;;;;;5098373;28;20644;-61
2023/08/23 10:35:23;;;;;;;5.13;2.80;;;;;;;;;;5099642;28;20239;-62
2023/08/23 10:37:52;;;;;;;2.70;2.50;;;;;;;;;;5098420;28;20288;-62
2023/08/23 10:40:21;;;;;;;5.32;3.10;;;;;;;;;;5097050;28;20707;-62
2023/08/23 10:42:49;;;;;;;5.18;4.13;;;;;;;;;;5097919;28;20201;-61
2023/08/23 10:45:17;;;;;;;3.88;3.00;;;;;;;;;;5098329;28;20304;-62
2023/08/23 10:47:45;;;;;;;5.30;3.35;;;;;;;;;;5098118;28;20220;-61
2023/08/23 10:50:15;;;;;;;6.70;3.05;;;;;;;;;;5099277;28;20237;-62
2023/08/23 10:52:43;;;;;;;3.45;3.00;;;;;;;;;;5097057;28;20212;-63
2023/08/23 10:55:11;;;;;;;3.42;3.13;;;;;;;;;;5098460;28;20212;-62
2023/08/23 10:57:38;;;;;;;11.65;4.30;;;;;;;;;;5098294;28;20194;-62
2023/08/23 11:00:07;;;;;;;3.58;3.17;;;;;;;;;;5097733;28;20695;-61
2023/08/23 11:02:35;;;;;;;5.50;3.85;;;;;;;;;;5097962;28;20260;-62
2023/08/23 11:05:03;;;;;;;7.95;3.25;;;;;;;;;;5098054;28;20224;-62
2023/08/23 11:07:35;;;;;;;4.28;2.90;;;;;;;;;;5097679;28;20702;-62
2023/08/23 11:10:03;;;;;;;5.43;3.17;;;;;;;;;;5097474;28;20854;-62
2023/08/23 11:12:31;;;;;;;4.57;3.25;;;;;;;;;;5097426;28;20204;-62
2023/08/23 11:14:59;;;;;;;3.03;2.72;;;;;;;;;;5098002;28;20204;-61
2023/08/23 11:17:27;;;;;;;3.10;2.80;;;;;;;;;;5097317;28;20205;-61
2023/08/23 11:19:55;;;;;;;4.15;3.10;;;;;;;;;;5097588;28;20236;-61
2023/08/23 11:22:24;;;;;;;3.70;3.00;;;;;;;;;;5097526;28;20201;-62
2023/08/23 11:24:54;;;;;;;7.45;2.97;;;;;;;;;;5097660;28;20643;-62
2023/08/23 11:27:21;;;;;;;5.35;3.20;;;;;;;;;;5097816;28;20204;-62
2023/08/23 11:29:49;;;;;;;6.20;3.00;;;;;;;;;;5097691;28;20201;-63
2023/08/23 11:32:17;;;;;;;3.33;3.03;;;;;;;;;;5097148;28;20735;-63
2023/08/23 11:34:44;;;;;;;5.05;2.97;;;;;;;;;;5098613;28;20683;-63
2023/08/23 11:37:13;;;;;;;5.25;3.55;;;;;;;;;;5097338;28;20288;-62
2023/08/23 11:39:41;;;;;;;3.33;3.03;;;;;;;;;;5097089;28;20240;-62
2023/08/23 11:42:10;;;;;;;3.85;2.97;;;;;;;;;;5096180;28;20197;-62
2023/08/23 11:44:41;;;;;;;4.70;3.40;;;;;;;;;;5096135;28;20230;-63
2023/08/23 11:47:10;;;;;;;3.33;3.03;;;;;;;;;;5097103;28;20233;-64
2023/08/23 11:49:38;;;;;;;3.40;3.10;;;;;;;;;;5094876;28;20292;-64
2023/08/23 11:52:06;;;;;;;4.25;3.10;;;;;;;;;;5094841;28;20924;-62
2023/08/23 11:54:34;;;;;;;5.53;3.03;;;;;;;;;;5088540;28;20193;-62
2023/08/23 11:57:02;;;;;;;4.43;3.17;;;;;;;;;;5095430;28;20677;-63
2023/08/23 11:59:31;;;;;;;4.60;3.50;;;;;;;;;;5098121;28;20197;-64
2023/08/23 12:01:59;;;;;;;5.38;2.60;;;;;;;;;;5094840;28;20320;-63
2023/08/23 12:04:27;;;;;;;5.63;3.10;;;;;;;;;;5093703;28;20224;-63
2023/08/23 12:06:55;;;;;;;2.88;2.60;;;;;;;;;;5091447;28;20236;-63
2023/08/23 12:09:25;;;;;;;6.15;3.15;;;;;;;;;;5094283;28;20207;-64
2023/08/23 12:11:53;;;;;;;3.22;2.30;;;;;;;;;;5095934;28;20260;-63
2023/08/23 12:14:23;;;;;;;2.83;2.60;;;;;;;;;;5094547;28;20221;-63
2023/08/23 12:16:52;;;;;;;3.10;2.40;;;;;;;;;;5094146;28;20259;-63
2023/08/23 12:19:20;;;;;;;3.45;2.95;;;;;;;;;;5094083;28;20202;-63
2023/08/23 12:21:57;;;;;;;4.82;2.72;;;;;;;;;;5094351;28;20215;-62
2023/08/23 12:24:25;;;;;;;4.32;2.90;;;;;;;;;;5095301;28;20228;-64
2023/08/23 12:26:53;;;;;;;4.85;3.40;;;;;;;;;;5097102;28;20209;-63
2023/08/23 12:29:22;;;;;;;3.70;2.55;;;;;;;;;;5097964;28;20656;-63
2023/08/23 12:31:51;;;;;;;2.90;2.63;;;;;;;;;;5097867;28;20252;-64
2023/08/23 12:34:23;;;;;;;6.03;2.80;;;;;;;;;;5095616;28;20251;-64
2023/08/23 12:36:50;;;;;;;6.78;3.60;;;;;;;;;;5095914;28;20214;-63
2023/08/23 12:39:18;;;;;;;5.13;3.20;;;;;;;;;;5096801;28;20681;-65
2023/08/23 12:41:47;;;;;;;5.05;3.15;;;;;;;;;;5096709;28;20236;-64
2023/08/23 12:44:14;;;;;;;4.15;3.40;;;;;;;;;;5095606;28;20201;-63
2023/08/23 12:46:42;;;;;;;4.18;2.70;;;;;;;;;;5096157;28;20221;-63
2023/08/23 12:49:13;;;;;;;6.53;3.30;;;;;;;;;;5096386;28;20205;-63
2023/08/23 12:51:41;;;;;;;2.88;2.67;;;;;;;;;;5095930;28;20316;-66
2023/08/23 12:54:08;;;;;;;3.08;2.88;;;;;;;;;;5094919;28;20748;-65
2023/08/23 12:56:36;;;;;;;4.85;2.65;;;;;;;;;;5097488;28;20288;-62
2023/08/23 12:59:04;;;;;;;3.58;2.72;;;;;;;;;;5095070;28;20279;-62
2023/08/23 13:01:34;;;;;;;2.97;2.78;;;;;;;;;;5096409;28;20279;-63
2023/08/23 13:04:02;;;;;;;3.15;2.67;;;;;;;;;;5098251;28;20212;-62
2023/08/23 13:06:32;;;;;;;4.00;3.00;;;;;;;;;;5099814;28;20225;-61
2023/08/23 13:09:00;;;;;;;4.53;3.30;;;;;;;;;;5099230;28;20197;-63
2023/08/23 13:11:27;;;;;;;3.47;3.15;;;;;;;;;;5100573;28;20307;-64
2023/08/23 13:13:55;;;;;;;3.22;2.90;;;;;;;;;;5095850;28;20243;-64
2023/08/23 13:16:23;;;;;;;3.13;2.72;;;;;;;;;;5098401;28;20190;-64
2023/08/23 13:18:51;;;;;;;3.97;3.47;;;;;;;;;;5095793;28;20205;-65
2023/08/23 13:21:19;;;;;;;3.85;2.63;;;;;;;;;;5097195;28;20673;-64
2023/08/23 13:23:48;;;;;;;3.55;3.20;;;;;;;;;;5098486;28;20229;-64
2023/08/23 13:26:16;;;;;;;3.53;3.22;;;;;;;;;;5098195;28;20227;-65
2023/08/23 13:28:44;;;;;;;5.88;3.17;;;;;;;;;;5096286;28;20562;-65
2023/08/23 13:31:12;;;;;;;6.82;3.45;;;;;;;;;;5098527;28;20234;-65
2023/08/23 13:33:46;;;;;;;3.60;2.55;;;;;;;;;;5094062;28;20204;-64
2023/08/23 13:36:14;;;;;;;4.22;2.80;;;;;;;;;;5095400;28;20287;-64
2023/08/23 13:38:42;;;;;;;2.78;2.58;;;;;;;;;;5098017;28;20340;-64
2023/08/23 13:41:11;;;;;;;12.73;3.40;;;;;;;;;;5096600;28;20225;-63
2023/08/23 13:43:39;;;;;;;5.95;2.88;;;;;;;;;;5094876;28;20229;-64
2023/08/23 13:46:07;;;;;;;3.53;2.83;;;;;;;;;;5097791;28;20253;-64
2023/08/23 13:48:35;;;;;;;4.45;2.97;;;;;;;;;;5097509;28;20197;-64
2023/08/23 13:51:03;;;;;;;3.50;3.20;;;;;;;;;;5094964;28;20221;-64
2023/08/23 13:53:30;;;;;;;3.92;2.83;;;;;;;;;;5099025;28;20229;-64
2023/08/23 13:55:58;;;;;;;3.85;2.47;;;;;;;;;;5092869;28;20201;-68
2023/08/23 13:58:27;;;;;;;3.10;2.70;;;;;;;;;;5098929;28;20197;-68
2023/08/23 14:00:56;;;;;;;6.20;2.70;;;;;;;;;;5099567;28;20233;-64
2023/08/23 14:03:25;;;;;;;15.75;3.63;;;;;;;;;;5094615;28;20201;-64
2023/08/23 14:05:57;;;;;;;4.55;2.50;;;;;;;;;;5093851;28;20229;-64
2023/08/23 14:08:25;;;;;;;5.20;2.90;;;;;;;;;;5098498;28;20200;-64
2023/08/23 14:10:53;;;;;;;4.10;2.58;;;;;;;;;;5096709;28;20221;-64
2023/08/23 14:13:20;;;;;;;3.92;3.00;;;;;;;;;;5096857;28;20201;-64
2023/08/23 14:15:50;;;;;;;3.03;2.50;;;;;;;;;;5095371;28;20329;-64
2023/08/23 14:18:17;;;;;;;7.50;3.50;;;;;;;;;;5098957;28;20563;-65
2023/08/23 14:20:45;;;;;;;4.22;2.72;;;;;;;;;;5096640;28;20225;-65
2023/08/23 14:23:13;;;;;;;3.35;2.58;;;;;;;;;;5096101;28;20201;-66
2023/08/23 14:25:41;;;;;;;4.15;2.38;;;;;;;;;;5098747;28;20217;-63
2023/08/23 14:28:09;;;;;;;4.80;2.70;;;;;;;;;;5100755;28;20201;-63
2023/08/23 14:30:37;;;;;;;4.43;2.70;;;;;;;;;;5096340;28;20217;-65
2023/08/23 14:33:06;;;;;;;4.70;3.20;;;;;;;;;;5094698;28;20653;-65
2023/08/23 14:35:34;;;;;;;6.90;2.67;;;;;;;;;;5092681;28;20206;-64
2023/08/23 14:38:02;;;;;;;7.00;2.78;;;;;;;;;;5096642;28;20197;-64
2023/08/23 14:40:30;;;;;;;6.18;2.65;;;;;;;;;;5098690;28;20228;-63
2023/08/23 14:42:57;;;;;;;4.93;2.80;;;;;;;;;;5095291;28;20613;-64
2023/08/23 14:45:26;;;;;;;5.85;3.03;;;;;;;;;;5096937;28;20199;-64
2023/08/23 14:47:54;;;;;;;7.57;3.28;;;;;;;;;;5097926;28;20264;-67
2023/08/23 14:50:24;;;;;;;7.70;3.10;;;;;;;;;;5099298;28;20676;-71